Time;durP1;ratioP1;P1;durP2;ratioP2;P2;SDS_P1;SDS_P2;PMS_P1;PMS_P2;Temp;Humidity;BMP_temperature;BMP_pressure;BME280_temperature;BME280_humidity;BME280_pressure;Samples;Min_cycle;Max_cycle;Signal;HPM_P1;HPM_P2
2023/03/03 00:01:15;;;;;;;35.42;11.98;;;0.60;99.90;;;;;;5068101;28;20016;-70
2023/03/03 00:03:41;;;;;;;31.25;11.23;;;0.60;99.90;;;;;;5068440;28;20024;-70
2023/03/03 00:06:10;;;;;;;31.73;12.52;;;0.60;99.90;;;;;;5068012;28;20552;-70
2023/03/03 00:08:35;;;;;;;35.78;13.52;;;0.60;99.90;;;;;;5067611;28;20143;-70
2023/03/03 00:11:03;;;;;;;35.50;13.70;;;0.60;99.90;;;;;;5067785;28;20017;-70
2023/03/03 00:13:30;;;;;;;39.38;15.40;;;0.50;99.90;;;;;;5068099;28;20039;-70
2023/03/03 00:16:12;;;;;;;46.35;14.30;;;0.50;99.90;;;;;;5066371;28;20504;-70
2023/03/03 00:18:43;;;;;;;39.85;13.60;;;0.50;99.90;;;;;;5067543;28;20028;-70
2023/03/03 00:21:19;;;;;;;37.30;12.23;;;0.50;99.90;;;;;;5067501;28;20028;-70
2023/03/03 00:23:45;;;;;;;37.90;11.73;;;0.50;99.90;;;;;;5067430;28;20036;-71
2023/03/03 00:26:35;;;;;;;38.30;13.52;;;0.50;99.90;;;;;;5067706;28;20028;-71
2023/03/03 00:29:01;;;;;;;37.92;12.05;;;0.50;99.90;;;;;;5067983;28;20025;-71
2023/03/03 00:31:35;;;;;;;39.83;12.15;;;0.60;99.90;;;;;;5050026;28;20028;-71
2023/03/03 00:34:16;;;;;;;39.60;13.20;;;0.60;99.90;;;;;;5046160;28;20044;-71
2023/03/03 00:36:42;;;;;;;36.30;12.15;;;0.60;99.90;;;;;;5047141;28;20060;-71
2023/03/03 00:39:24;;;;;;;39.03;13.45;;;0.70;99.90;;;;;;5061107;28;20052;-71
2023/03/03 00:41:49;;;;;;;35.47;12.23;;;0.70;99.90;;;;;;5068398;28;20033;-73
2023/03/03 00:44:40;;;;;;;31.75;12.32;;;0.60;99.90;;;;;;5068816;28;20032;-73
2023/03/03 00:47:42;;;;;;;38.58;12.35;;;0.60;99.90;;;;;;5068193;28;20036;-74
2023/03/03 00:50:10;;;;;;;35.70;11.82;;;0.60;99.90;;;;;;5027005;28;20044;-72
2023/03/03 00:52:38;;;;;;;36.22;12.65;;;0.60;99.90;;;;;;5069444;28;20102;-71
2023/03/03 00:55:05;;;;;;;40.97;12.68;;;0.60;99.90;;;;;;5069085;28;20036;-72
2023/03/03 00:57:30;;;;;;;33.80;11.77;;;0.60;99.90;;;;;;5069450;28;20040;-71
2023/03/03 00:59:56;;;;;;;31.48;11.77;;;0.60;99.90;;;;;;5067800;28;20373;-71
2023/03/03 01:02:22;;;;;;;41.15;13.20;;;0.70;99.90;;;;;;5067533;28;20542;-71
2023/03/03 01:04:51;;;;;;;39.08;12.93;;;0.70;99.90;;;;;;5069309;28;20051;-70
2023/03/03 01:07:17;;;;;;;36.72;12.90;;;0.70;99.90;;;;;;5068838;28;20048;-72
2023/03/03 01:09:42;;;;;;;41.53;13.65;;;0.70;99.90;;;;;;5067811;28;20392;-71
2023/03/03 01:12:10;;;;;;;47.22;13.23;;;0.70;99.90;;;;;;5068832;28;20021;-71
2023/03/03 01:14:35;;;;;;;60.15;15.48;;;0.80;99.90;;;;;;5069199;28;20453;-71
2023/03/03 01:17:01;;;;;;;46.47;13.23;;;0.80;99.90;;;;;;5068899;28;20024;-71
2023/03/03 01:19:27;;;;;;;46.70;14.05;;;0.80;99.90;;;;;;5068568;28;20028;-71
2023/03/03 01:21:52;;;;;;;41.00;13.73;;;0.80;99.90;;;;;;5069020;28;20028;-71
2023/03/03 01:24:18;;;;;;;48.20;14.90;;;0.80;99.90;;;;;;5068630;28;20044;-72
2023/03/03 01:26:43;;;;;;;38.92;12.73;;;0.80;99.90;;;;;;5068543;28;20029;-71
2023/03/03 01:29:09;;;;;;;38.72;12.90;;;0.80;99.90;;;;;;5068978;28;20016;-71
2023/03/03 01:31:34;;;;;;;45.70;14.07;;;0.80;99.90;;;;;;5068424;28;20082;-72
2023/03/03 01:34:00;;;;;;;43.03;12.65;;;0.80;99.90;;;;;;5068684;28;20029;-72
2023/03/03 01:36:28;;;;;;;37.40;13.30;;;0.80;99.90;;;;;;5068888;28;20656;-71
2023/03/03 01:38:54;;;;;;;52.05;15.18;;;0.80;99.90;;;;;;5067904;28;20035;-71
2023/03/03 01:41:19;;;;;;;46.17;14.02;;;0.80;99.90;;;;;;5068469;28;20028;-61
2023/03/03 01:43:47;;;;;;;49.08;15.23;;;0.80;99.90;;;;;;5068560;28;20020;-71
2023/03/03 01:46:47;;;;;;;51.67;14.38;;;0.80;99.90;;;;;;5068626;28;20025;-61
2023/03/03 01:49:41;;;;;;;59.90;15.38;;;0.80;99.90;;;;;;5068166;28;20032;-61
2023/03/03 01:52:15;;;;;;;57.95;15.88;;;0.80;99.90;;;;;;5068212;28;20062;-61
2023/03/03 01:54:47;;;;;;;57.47;16.55;;;0.90;99.90;;;;;;5068269;28;20016;-61
2023/03/03 01:57:21;;;;;;;57.97;18.13;;;0.90;99.90;;;;;;5068283;28;20468;-61
2023/03/03 01:59:49;;;;;;;56.58;15.93;;;0.80;99.90;;;;;;5068055;28;20380;-61
2023/03/03 02:02:15;;;;;;;66.90;16.38;;;0.90;99.90;;;;;;5075495;28;20534;-61
2023/03/03 02:04:40;;;;;;;55.83;17.23;;;0.90;99.90;;;;;;5067844;28;20032;-61
2023/03/03 02:07:09;;;;;;;60.88;16.85;;;0.90;99.90;;;;;;5077247;28;20028;-61
2023/03/03 02:10:03;;;;;;;60.67;16.45;;;0.90;99.90;;;;;;5067842;28;20094;-61
2023/03/03 02:12:37;;;;;;;44.95;14.40;;;0.90;99.90;;;;;;5071364;28;20058;-61
2023/03/03 02:15:15;;;;;;;44.72;13.43;;;0.90;99.90;;;;;;5048202;28;20091;-61
2023/03/03 02:17:41;;;;;;;43.47;13.05;;;0.90;99.90;;;;;;5060304;28;20041;-70
2023/03/03 02:20:16;;;;;;;42.13;13.05;;;0.90;99.90;;;;;;5087681;28;20037;-70
2023/03/03 02:23:23;;;;;;;43.60;12.82;;;0.90;99.90;;;;;;5060712;28;20037;-70
2023/03/03 02:25:53;;;;;;;53.25;13.48;;;0.90;99.90;;;;;;5039989;28;20087;-70
2023/03/03 02:28:19;;;;;;;40.63;13.43;;;0.90;99.90;;;;;;5046613;28;20736;-70
2023/03/03 02:30:45;;;;;;;37.45;12.65;;;0.90;99.90;;;;;;5087052;28;20036;-70
2023/03/03 02:33:11;;;;;;;39.58;13.13;;;0.90;99.90;;;;;;5048395;28;20760;-70
2023/03/03 02:35:39;;;;;;;45.58;14.38;;;0.90;99.90;;;;;;5067367;28;20036;-70
2023/03/03 02:38:19;;;;;;;42.20;13.35;;;0.80;99.90;;;;;;5068529;28;20055;-70
2023/03/03 02:41:25;;;;;;;39.70;12.65;;;0.80;99.90;;;;;;5070572;28;20154;-71
2023/03/03 02:44:00;;;;;;;41.83;13.25;;;0.80;99.90;;;;;;5048576;28;20060;-70
2023/03/03 02:46:27;;;;;;;39.90;13.80;;;0.90;99.90;;;;;;5085015;28;20043;-70
2023/03/03 02:48:53;;;;;;;37.45;12.15;;;0.90;99.90;;;;;;5088237;28;20024;-69
2023/03/03 02:51:18;;;;;;;36.50;12.88;;;0.90;99.90;;;;;;5069850;28;21582;-70
2023/03/03 02:53:44;;;;;;;28.98;10.50;;;0.90;99.90;;;;;;5071797;28;20477;-69
2023/03/03 02:56:10;;;;;;;32.78;11.73;;;0.90;99.90;;;;;;5087748;28;20020;-69
2023/03/03 02:58:36;;;;;;;33.05;11.30;;;0.90;99.90;;;;;;5091631;28;20048;-70
2023/03/03 03:01:03;;;;;;;30.10;11.05;;;0.90;99.90;;;;;;5069702;28;20111;-71
2023/03/03 03:03:28;;;;;;;41.45;13.20;;;0.90;99.90;;;;;;5071609;28;20170;-69
2023/03/03 03:05:54;;;;;;;34.22;10.77;;;1.00;99.90;;;;;;5090703;28;20119;-70
2023/03/03 03:08:19;;;;;;;36.38;11.80;;;1.00;99.90;;;;;;5072546;28;20181;-69
2023/03/03 03:10:45;;;;;;;34.83;11.27;;;1.00;99.90;;;;;;5071963;28;20078;-70
2023/03/03 03:13:10;;;;;;;36.58;12.18;;;1.00;99.90;;;;;;5070371;28;20032;-70
2023/03/03 03:15:36;;;;;;;40.80;13.77;;;1.10;99.90;;;;;;5090622;28;20024;-70
2023/03/03 03:18:02;;;;;;;33.17;12.73;;;1.10;99.90;;;;;;5053003;28;20063;-70
2023/03/03 03:20:28;;;;;;;31.33;11.90;;;1.00;99.90;;;;;;5070366;28;20086;-70
2023/03/03 03:22:53;;;;;;;36.88;12.77;;;1.10;99.90;;;;;;5072755;28;20032;-71
2023/03/03 03:25:19;;;;;;;38.35;12.80;;;1.10;99.90;;;;;;5090869;28;20115;-69
2023/03/03 03:27:44;;;;;;;41.00;14.48;;;1.10;99.90;;;;;;5053885;28;20025;-70
2023/03/03 03:30:10;;;;;;;35.38;11.48;;;1.10;99.90;;;;;;5070337;28;20059;-70
2023/03/03 03:32:36;;;;;;;42.08;14.55;;;1.00;99.90;;;;;;5075156;28;20039;-70
2023/03/03 03:35:01;;;;;;;33.50;12.68;;;1.10;99.90;;;;;;5090299;28;20024;-70
2023/03/03 03:37:27;;;;;;;36.05;12.85;;;1.10;99.90;;;;;;5057421;28;20041;-71
2023/03/03 03:39:52;;;;;;;40.55;13.63;;;1.10;99.90;;;;;;5070402;28;20511;-70
2023/03/03 03:42:18;;;;;;;37.58;13.43;;;1.10;99.90;;;;;;5088195;28;20036;-70
2023/03/03 03:44:44;;;;;;;29.98;11.57;;;1.10;99.90;;;;;;5071112;28;20024;-70
2023/03/03 03:47:09;;;;;;;23.38;10.10;;;1.00;99.90;;;;;;5088424;28;20400;-70
2023/03/03 03:49:35;;;;;;;30.38;12.27;;;1.00;99.90;;;;;;5070916;28;20439;-70
2023/03/03 03:52:00;;;;;;;31.05;12.70;;;1.00;99.90;;;;;;5070912;28;20574;-69
2023/03/03 03:54:26;;;;;;;32.33;10.90;;;1.00;99.90;;;;;;5070017;28;20032;-69
2023/03/03 03:56:53;;;;;;;35.97;9.45;;;1.10;99.90;;;;;;5087897;28;20028;-69
2023/03/03 03:59:19;;;;;;;35.42;10.52;;;1.10;99.90;;;;;;5090689;28;20039;-69
2023/03/03 04:01:44;;;;;;;27.92;10.07;;;1.10;99.90;;;;;;5068349;28;20060;-69
2023/03/03 04:04:10;;;;;;;32.40;11.48;;;1.10;99.90;;;;;;5070256;28;20054;-69
2023/03/03 04:06:36;;;;;;;26.65;10.95;;;1.10;99.90;;;;;;5087416;28;20052;-70
2023/03/03 04:09:02;;;;;;;23.67;10.07;;;1.10;99.90;;;;;;5080348;28;20117;-70
2023/03/03 04:11:27;;;;;;;30.27;10.02;;;1.10;99.90;;;;;;5070497;28;20032;-70
2023/03/03 04:13:53;;;;;;;23.13;9.10;;;1.10;99.90;;;;;;5069285;28;20067;-70
2023/03/03 04:16:18;;;;;;;24.52;9.50;;;1.10;99.90;;;;;;5089835;28;20020;-70
2023/03/03 04:18:44;;;;;;;20.42;8.85;;;1.10;99.90;;;;;;5068622;28;20028;-70
2023/03/03 04:21:13;;;;;;;24.35;9.07;;;1.00;99.90;;;;;;5087177;28;20765;-70
2023/03/03 04:23:39;;;;;;;18.42;8.13;;;1.10;99.90;;;;;;5089139;28;20139;-70
2023/03/03 04:26:05;;;;;;;20.83;8.73;;;1.10;99.90;;;;;;5068557;28;20104;-68
2023/03/03 04:28:30;;;;;;;29.60;10.70;;;1.10;99.90;;;;;;5070003;28;20384;-69
2023/03/03 04:30:56;;;;;;;26.20;9.88;;;1.10;99.90;;;;;;5089644;28;20031;-70
2023/03/03 04:33:21;;;;;;;29.30;10.32;;;1.10;99.90;;;;;;5049698;28;20090;-68
2023/03/03 04:35:47;;;;;;;28.58;9.88;;;1.10;99.90;;;;;;5068836;28;20468;-70
2023/03/03 04:38:12;;;;;;;29.15;10.57;;;1.10;99.90;;;;;;5087661;28;20024;-70
2023/03/03 04:40:40;;;;;;;24.95;9.60;;;1.10;99.90;;;;;;5069989;28;20025;-70
2023/03/03 04:43:06;;;;;;;31.90;10.35;;;1.10;99.90;;;;;;5070490;28;20034;-70
2023/03/03 04:45:31;;;;;;;23.45;8.63;;;1.10;99.90;;;;;;5089112;28;20032;-70
2023/03/03 04:47:57;;;;;;;24.17;9.65;;;1.10;99.90;;;;;;5052752;28;20106;-70
2023/03/03 04:50:22;;;;;;;26.27;9.27;;;1.10;99.90;;;;;;5065649;28;20040;-70
2023/03/03 04:52:48;;;;;;;25.52;9.65;;;1.00;99.90;;;;;;5067597;28;20029;-70
2023/03/03 04:55:15;;;;;;;27.25;10.50;;;1.10;99.90;;;;;;5067600;28;20532;-70
2023/03/03 04:57:41;;;;;;;26.95;11.05;;;1.00;99.90;;;;;;5048410;28;20094;-70
2023/03/03 05:00:07;;;;;;;19.63;9.90;;;1.00;99.90;;;;;;5087196;28;20020;-71
2023/03/03 05:02:33;;;;;;;34.17;11.07;;;1.00;99.90;;;;;;5048011;28;20033;-70
2023/03/03 05:04:58;;;;;;;28.20;10.65;;;1.00;99.90;;;;;;5059255;28;20090;-70
2023/03/03 05:07:24;;;;;;;29.45;9.95;;;1.00;99.90;;;;;;5074215;28;20526;-69
2023/03/03 05:09:49;;;;;;;33.10;10.68;;;1.00;99.90;;;;;;5066257;28;20081;-70
2023/03/03 05:12:15;;;;;;;25.08;9.23;;;1.00;99.90;;;;;;5074371;28;20025;-72
2023/03/03 05:14:41;;;;;;;24.88;9.55;;;1.00;99.90;;;;;;5046646;28;20563;-70
2023/03/03 05:17:06;;;;;;;23.00;9.75;;;0.90;99.90;;;;;;5073932;28;20020;-69
2023/03/03 05:19:33;;;;;;;24.45;10.02;;;0.90;99.90;;;;;;5087509;28;20070;-71
2023/03/03 05:21:59;;;;;;;30.05;9.27;;;0.90;99.90;;;;;;5069085;28;20028;-69
2023/03/03 05:24:25;;;;;;;20.95;8.68;;;0.90;99.90;;;;;;5087848;28;20092;-70
2023/03/03 05:26:50;;;;;;;28.80;10.40;;;0.90;99.90;;;;;;5066566;28;20113;-69
2023/03/03 05:29:16;;;;;;;23.77;8.65;;;0.90;99.90;;;;;;5068112;28;20038;-70
2023/03/03 05:31:41;;;;;;;31.90;8.50;;;0.90;99.90;;;;;;5085578;28;20020;-69
2023/03/03 05:34:07;;;;;;;22.13;9.65;;;0.90;99.90;;;;;;5088678;28;20442;-70
2023/03/03 05:36:32;;;;;;;21.80;8.18;;;0.90;99.90;;;;;;5068590;28;20027;-69
2023/03/03 05:38:58;;;;;;;26.83;9.02;;;0.90;99.90;;;;;;5065447;28;20032;-69
2023/03/03 05:41:23;;;;;;;20.50;9.60;;;0.80;99.90;;;;;;5087680;28;20031;-68
2023/03/03 05:43:49;;;;;;;19.23;8.88;;;0.90;99.90;;;;;;5048130;28;20036;-70
2023/03/03 05:46:15;;;;;;;21.45;9.18;;;0.80;99.90;;;;;;5068056;28;20033;-69
2023/03/03 05:48:40;;;;;;;20.70;9.05;;;0.90;99.90;;;;;;5068089;28;20082;-69
2023/03/03 05:51:06;;;;;;;24.83;10.23;;;0.80;99.90;;;;;;5087695;28;20043;-69
2023/03/03 05:53:31;;;;;;;20.33;8.18;;;0.80;99.90;;;;;;5050988;28;20041;-68
2023/03/03 05:55:57;;;;;;;23.58;9.52;;;0.80;99.90;;;;;;5067439;28;20032;-68
2023/03/03 05:58:22;;;;;;;23.17;9.27;;;0.80;99.90;;;;;;5070270;28;20035;-68
2023/03/03 06:00:48;;;;;;;20.13;8.32;;;0.80;99.90;;;;;;5066931;28;20112;-70
2023/03/03 06:03:13;;;;;;;20.98;8.27;;;0.80;99.90;;;;;;5066161;28;20047;-70
2023/03/03 06:05:39;;;;;;;18.23;7.93;;;0.80;99.90;;;;;;5084896;28;20530;-68
2023/03/03 06:08:05;;;;;;;20.15;8.10;;;0.80;99.90;;;;;;5050155;28;20440;-69
2023/03/03 06:10:30;;;;;;;19.52;8.40;;;0.80;99.90;;;;;;5086942;28;20040;-69
2023/03/03 06:12:57;;;;;;;20.73;8.15;;;0.80;99.90;;;;;;5054014;28;20056;-69
2023/03/03 06:15:22;;;;;;;19.67;7.85;;;0.80;99.90;;;;;;5067081;28;20214;-69
2023/03/03 06:17:48;;;;;;;18.48;7.82;;;0.80;99.90;;;;;;5073833;28;20052;-69
2023/03/03 06:20:14;;;;;;;24.67;8.30;;;0.70;99.90;;;;;;5087082;28;20319;-70
2023/03/03 06:22:39;;;;;;;23.55;8.38;;;0.70;99.90;;;;;;5066332;28;20033;-70
2023/03/03 06:25:05;;;;;;;18.85;8.43;;;0.70;99.90;;;;;;5088778;28;20084;-70
2023/03/03 06:27:30;;;;;;;16.25;7.55;;;0.70;99.90;;;;;;5069947;28;20028;-69
2023/03/03 06:29:56;;;;;;;19.58;8.27;;;0.70;99.90;;;;;;5091121;28;20706;-70
2023/03/03 06:32:21;;;;;;;14.82;7.45;;;0.70;99.90;;;;;;5069989;28;20427;-69
2023/03/03 06:34:47;;;;;;;18.35;7.18;;;0.70;99.90;;;;;;5091227;28;20522;-69
2023/03/03 06:37:12;;;;;;;20.23;8.27;;;0.80;99.90;;;;;;5070149;28;20504;-70
2023/03/03 06:39:38;;;;;;;20.02;7.97;;;0.80;99.90;;;;;;5071299;28;20074;-70
2023/03/03 06:42:03;;;;;;;18.70;7.95;;;0.80;99.90;;;;;;5088785;28;20066;-70
2023/03/03 06:44:29;;;;;;;16.17;8.25;;;0.80;99.90;;;;;;5091674;28;20028;-69
2023/03/03 06:46:56;;;;;;;19.40;8.73;;;0.80;99.90;;;;;;5070078;28;20048;-70
2023/03/03 06:49:22;;;;;;;15.30;7.32;;;0.80;99.90;;;;;;5069691;28;20551;-69
2023/03/03 06:51:48;;;;;;;17.25;8.05;;;0.80;99.90;;;;;;5088639;28;20207;-70
2023/03/03 06:54:15;;;;;;;15.73;7.53;;;0.80;99.90;;;;;;5091436;28;20400;-69
2023/03/03 06:56:42;;;;;;;18.83;8.27;;;0.80;99.90;;;;;;5069312;28;20025;-69
2023/03/03 06:59:16;;;;;;;16.55;7.82;;;0.80;99.90;;;;;;5070918;28;20181;-69
2023/03/03 07:01:43;;;;;;;15.90;7.65;;;0.80;99.90;;;;;;5088423;28;20046;-69
2023/03/03 07:04:24;;;;;;;20.63;9.15;;;0.80;99.90;;;;;;5091332;28;20622;-68
2023/03/03 07:06:50;;;;;;;18.25;6.80;;;0.70;99.90;;;;;;5065183;28;20036;-68
2023/03/03 07:09:27;;;;;;;17.50;8.25;;;0.70;99.90;;;;;;5070517;28;20380;-68
2023/03/03 07:11:59;;;;;;;20.73;8.50;;;0.70;99.90;;;;;;5088355;28;20114;-69
2023/03/03 07:14:25;;;;;;;19.75;7.80;;;0.80;99.90;;;;;;5090957;28;20028;-68
2023/03/03 07:17:03;;;;;;;15.85;8.20;;;0.80;99.90;;;;;;5068957;28;20040;-68
2023/03/03 07:19:34;;;;;;;14.02;6.35;;;0.80;99.90;;;;;;5070523;28;20313;-68
2023/03/03 07:22:13;;;;;;;14.95;7.80;;;0.80;99.90;;;;;;5088154;28;20700;-69
2023/03/03 07:24:39;;;;;;;15.85;7.43;;;0.80;99.90;;;;;;5091047;28;20024;-69
2023/03/03 07:27:05;;;;;;;14.73;6.68;;;0.80;99.90;;;;;;5068906;28;20120;-69
2023/03/03 07:29:32;;;;;;;15.48;6.75;;;0.80;99.90;;;;;;5070142;28;20395;-68
2023/03/03 07:31:59;;;;;;;12.10;5.93;;;0.80;99.90;;;;;;5088545;28;20024;-69
2023/03/03 07:34:42;;;;;;;15.18;6.97;;;0.80;99.90;;;;;;5090571;28;20495;-68
2023/03/03 07:37:19;;;;;;;12.82;6.00;;;0.90;99.90;;;;;;5059568;28;20024;-69
2023/03/03 07:39:49;;;;;;;13.65;7.30;;;0.90;99.90;;;;;;5090367;28;20053;-69
2023/03/03 07:42:21;;;;;;;17.00;7.97;;;0.90;99.90;;;;;;5067854;28;20025;-69
2023/03/03 07:44:51;;;;;;;13.48;6.97;;;0.90;99.90;;;;;;5070301;28;20112;-69
2023/03/03 07:47:29;;;;;;;21.88;8.65;;;0.90;99.90;;;;;;5088100;28;20103;-65
2023/03/03 07:50:00;;;;;;;16.70;7.70;;;0.90;99.90;;;;;;5090351;28;20024;-69
2023/03/03 07:52:48;;;;;;;15.82;7.53;;;0.90;99.90;;;;;;5064967;28;20036;-68
2023/03/03 07:55:34;;;;;;;12.60;6.22;;;1.00;99.90;;;;;;5049883;28;20029;-68
2023/03/03 07:58:13;;;;;;;17.25;7.22;;;1.00;99.90;;;;;;5074036;28;20620;-68
2023/03/03 08:00:39;;;;;;;15.32;7.82;;;1.00;99.90;;;;;;5089338;28;20031;-68
2023/03/03 08:03:19;;;;;;;15.88;7.10;;;1.10;99.90;;;;;;5054662;28;20041;-68
2023/03/03 08:05:49;;;;;;;15.23;6.93;;;1.10;99.90;;;;;;5069394;28;20028;-68
2023/03/03 08:08:35;;;;;;;17.27;7.13;;;1.10;99.90;;;;;;5074501;28;20466;-68
2023/03/03 08:11:02;;;;;;;17.98;7.75;;;1.10;99.90;;;;;;5049665;28;20241;-68
2023/03/03 08:13:39;;;;;;;22.90;9.70;;;1.10;99.90;;;;;;5069830;28;20033;-68
2023/03/03 08:16:10;;;;;;;17.15;7.15;;;1.20;99.90;;;;;;5049554;28;20029;-68
2023/03/03 08:18:46;;;;;;;18.83;8.52;;;1.20;99.90;;;;;;5067977;28;20032;-68
2023/03/03 08:21:12;;;;;;;15.18;7.40;;;1.20;99.90;;;;;;5049467;28;20495;-69
2023/03/03 08:23:38;;;;;;;14.48;7.32;;;1.20;99.90;;;;;;5068019;28;20044;-68
2023/03/03 08:26:03;;;;;;;16.15;8.20;;;1.30;99.90;;;;;;5088938;28;20089;-68
2023/03/03 08:28:29;;;;;;;14.85;7.28;;;1.30;99.90;;;;;;5050630;28;20096;-68
2023/03/03 08:30:54;;;;;;;12.55;6.88;;;1.40;99.90;;;;;;5068522;28;20028;-68
2023/03/03 08:33:20;;;;;;;17.20;7.00;;;1.40;99.90;;;;;;5070607;28;20077;-67
2023/03/03 08:35:46;;;;;;;15.30;7.40;;;1.50;99.90;;;;;;5088562;28;20507;-68
2023/03/03 08:38:13;;;;;;;16.40;8.25;;;1.50;99.90;;;;;;5052888;28;20052;-68
2023/03/03 08:40:39;;;;;;;12.52;7.03;;;1.60;99.90;;;;;;5068736;28;20044;-68
2023/03/03 08:43:05;;;;;;;14.95;7.85;;;1.60;99.90;;;;;;5071139;28;20054;-68
2023/03/03 08:45:31;;;;;;;17.05;7.80;;;1.60;99.90;;;;;;5088271;28;20415;-68
2023/03/03 08:47:58;;;;;;;15.63;6.78;;;1.60;99.90;;;;;;5054853;28;20029;-68
2023/03/03 08:50:24;;;;;;;13.60;6.70;;;1.70;99.90;;;;;;5068305;28;20032;-67
2023/03/03 08:52:50;;;;;;;12.10;6.15;;;1.70;99.90;;;;;;5074527;28;20058;-68
2023/03/03 08:55:16;;;;;;;17.42;7.82;;;1.80;99.90;;;;;;5088596;28;20059;-68
2023/03/03 08:57:42;;;;;;;19.30;8.52;;;1.90;99.90;;;;;;5067099;28;20063;-68
2023/03/03 09:00:11;;;;;;;18.42;8.35;;;1.90;99.90;;;;;;5088367;28;20403;-68
2023/03/03 09:02:38;;;;;;;16.38;7.72;;;1.80;99.90;;;;;;5066380;28;20079;-68
2023/03/03 09:05:04;;;;;;;17.88;8.02;;;1.90;99.90;;;;;;5088599;28;20020;-68
2023/03/03 09:07:29;;;;;;;16.10;7.68;;;1.90;99.90;;;;;;5063286;28;20033;-69
2023/03/03 09:09:55;;;;;;;16.75;7.88;;;1.90;99.90;;;;;;5068519;28;20124;-69
2023/03/03 09:12:28;;;;;;;15.48;7.63;;;2.00;99.90;;;;;;5086186;28;20078;-68
2023/03/03 09:14:58;;;;;;;21.13;9.40;;;2.10;99.90;;;;;;5048830;28;20017;-69
2023/03/03 09:17:32;;;;;;;20.92;9.10;;;2.10;99.90;;;;;;5086838;28;20020;-68
2023/03/03 09:20:34;;;;;;;17.67;7.57;;;2.10;99.90;;;;;;5048678;28;20029;-69
2023/03/03 09:23:22;;;;;;;16.35;7.80;;;2.20;99.90;;;;;;5072886;28;20024;-69
2023/03/03 09:25:48;;;;;;;18.75;9.18;;;2.30;99.90;;;;;;5048476;28;20388;-69
2023/03/03 09:28:30;;;;;;;17.63;8.20;;;2.30;99.90;;;;;;5070396;28;20523;-70
2023/03/03 09:31:04;;;;;;;19.02;7.90;;;2.30;99.90;;;;;;5087957;28;20028;-69
2023/03/03 09:33:45;;;;;;;20.17;8.90;;;2.40;99.90;;;;;;5049298;28;20383;-68
2023/03/03 09:36:25;;;;;;;19.17;9.32;;;2.50;99.90;;;;;;5088014;28;20117;-69
2023/03/03 09:38:51;;;;;;;22.95;9.75;;;2.60;99.90;;;;;;5088201;28;20031;-69
2023/03/03 09:41:48;;;;;;;22.13;10.40;;;2.60;99.90;;;;;;5068406;28;20081;-69
2023/03/03 09:44:50;;;;;;;23.30;10.05;;;2.70;99.90;;;;;;5068109;28;20108;-69
2023/03/03 09:47:40;;;;;;;22.27;10.10;;;2.70;99.90;;;;;;5060299;28;20016;-68
2023/03/03 09:50:32;;;;;;;20.70;10.43;;;2.80;99.90;;;;;;5088257;28;20118;-68
2023/03/03 09:53:10;;;;;;;21.45;11.15;;;2.90;99.90;;;;;;5072014;28;20518;-68
2023/03/03 09:55:49;;;;;;;23.35;10.57;;;2.90;99.90;;;;;;5047890;28;20041;-69
2023/03/03 09:58:25;;;;;;;21.70;11.02;;;2.90;99.90;;;;;;5061692;28;20106;-68
2023/03/03 10:01:28;;;;;;;19.73;9.38;;;3.00;99.90;;;;;;5053658;28;20112;-69
2023/03/03 10:04:29;;;;;;;23.15;10.35;;;3.00;99.90;;;;;;5054538;28;20028;-69
2023/03/03 10:07:14;;;;;;;21.95;10.05;;;3.00;99.90;;;;;;5053110;28;20024;-69
2023/03/03 10:09:59;;;;;;;19.87;8.93;;;3.10;99.90;;;;;;5074790;28;20039;-69
2023/03/03 10:12:34;;;;;;;22.88;10.98;;;3.10;99.90;;;;;;5069140;28;20454;-69
2023/03/03 10:15:19;;;;;;;24.33;10.98;;;3.30;99.90;;;;;;5054730;28;20112;-69
2023/03/03 10:18:32;;;;;;;27.70;12.63;;;3.40;99.90;;;;;;5074893;28;20028;-58
2023/03/03 10:21:10;;;;;;;24.00;11.18;;;3.40;99.90;;;;;;5058422;28;20111;-59
2023/03/03 10:24:00;;;;;;;25.52;11.52;;;3.60;99.90;;;;;;5070946;28;20025;-59
2023/03/03 10:26:50;;;;;;;27.23;12.38;;;3.70;99.90;;;;;;5053162;28;20033;-58
2023/03/03 10:29:45;;;;;;;24.88;12.63;;;3.70;99.90;;;;;;5094916;28;20476;-59
2023/03/03 10:32:51;;;;;;;24.88;11.40;;;3.80;99.90;;;;;;5072461;28;20028;-59
2023/03/03 10:35:41;;;;;;;28.60;12.68;;;3.90;99.20;;;;;;5032967;28;20041;-59
2023/03/03 10:38:33;;;;;;;20.98;10.90;;;4.00;99.20;;;;;;5066946;28;20120;-59
2023/03/03 10:41:35;;;;;;;24.23;12.93;;;4.00;99.10;;;;;;5094479;28;20031;-58
2023/03/03 10:44:20;;;;;;;28.10;13.00;;;4.00;96.80;;;;;;5054065;28;20037;-59
2023/03/03 10:47:02;;;;;;;23.80;11.75;;;4.10;96.70;;;;;;5058242;28;20054;-59
2023/03/03 10:49:31;;;;;;;26.92;13.35;;;4.20;97.10;;;;;;5094190;28;20046;-58
2023/03/03 10:52:17;;;;;;;24.00;12.35;;;4.30;95.90;;;;;;5072292;28;20020;-59
2023/03/03 10:55:13;;;;;;;21.58;11.52;;;4.40;94.00;;;;;;5069693;28;20044;-59
2023/03/03 10:57:57;;;;;;;23.77;11.40;;;4.40;93.80;;;;;;5072514;28;20029;-59
2023/03/03 11:00:30;;;;;;;22.60;11.05;;;4.50;95.60;;;;;;5069938;28;20024;-59
2023/03/03 11:03:22;;;;;;;22.52;12.50;;;4.60;96.50;;;;;;5052898;28;20041;-58
2023/03/03 11:05:52;;;;;;;19.60;10.35;;;4.60;92.60;;;;;;5076519;28;20071;-59
2023/03/03 11:08:25;;;;;;;22.30;10.73;;;4.60;94.80;;;;;;5066552;28;20082;-59
2023/03/03 11:11:10;;;;;;;19.10;9.45;;;4.70;93.20;;;;;;5063204;28;20036;-59
2023/03/03 11:13:53;;;;;;;18.10;9.90;;;4.70;92.60;;;;;;5050092;28;20422;-59
2023/03/03 11:16:35;;;;;;;19.33;9.57;;;4.80;94.30;;;;;;5065014;28;20107;-59
2023/03/03 11:19:11;;;;;;;18.05;10.15;;;4.80;94.40;;;;;;5050059;28;20033;-59
2023/03/03 11:21:46;;;;;;;16.90;9.90;;;4.90;94.10;;;;;;5067150;28;20029;-58
2023/03/03 11:24:23;;;;;;;25.73;13.18;;;5.10;92.80;;;;;;5049376;28;20036;-60
2023/03/03 11:26:51;;;;;;;16.88;10.02;;;5.10;89.40;;;;;;5049769;28;20104;-60
2023/03/03 11:29:36;;;;;;;16.73;10.57;;;5.10;90.80;;;;;;5086330;28;20031;-59
2023/03/03 11:32:22;;;;;;;14.45;8.68;;;5.20;91.90;;;;;;5087905;28;20073;-60
2023/03/03 11:35:06;;;;;;;17.23;9.45;;;5.30;92.00;;;;;;5089848;28;20020;-60
2023/03/03 11:37:43;;;;;;;16.92;8.73;;;5.40;91.10;;;;;;5057794;28;20376;-60
2023/03/03 11:40:18;;;;;;;15.57;8.68;;;5.40;91.10;;;;;;5090013;28;20024;-59
2023/03/03 11:42:53;;;;;;;19.10;10.07;;;5.40;91.30;;;;;;5062744;28;20461;-61
2023/03/03 11:45:24;;;;;;;17.05;9.45;;;5.50;91.50;;;;;;5049593;28;20384;-60
2023/03/03 11:48:03;;;;;;;17.92;9.48;;;5.40;89.30;;;;;;5064122;28;20044;-60
2023/03/03 11:50:48;;;;;;;18.10;8.82;;;5.50;90.60;;;;;;5049241;28;20036;-60
2023/03/03 11:53:46;;;;;;;17.95;9.20;;;5.60;90.40;;;;;;5070904;28;20515;-60
2023/03/03 11:56:44;;;;;;;15.32;8.70;;;5.60;90.00;;;;;;5049198;28;20025;-60
2023/03/03 11:59:34;;;;;;;15.80;7.35;;;5.70;89.90;;;;;;5067746;28;20397;-60
2023/03/03 12:02:36;;;;;;;15.15;9.15;;;5.70;88.10;;;;;;5086483;28;20036;-61
2023/03/03 12:05:26;;;;;;;18.85;10.60;;;5.80;89.60;;;;;;5053027;28;20107;-58
2023/03/03 12:08:26;;;;;;;16.10;9.00;;;5.80;89.90;;;;;;5055193;28;20059;-61
2023/03/03 12:11:05;;;;;;;16.55;7.50;;;5.90;88.80;;;;;;5048945;28;20036;-60
2023/03/03 12:13:36;;;;;;;16.77;10.07;;;5.90;88.10;;;;;;5071844;28;20099;-58
2023/03/03 12:16:12;;;;;;;18.25;10.55;;;6.00;87.50;;;;;;5088784;28;20034;-60
2023/03/03 12:18:52;;;;;;;16.80;9.90;;;6.10;87.00;;;;;;5063266;28;20070;-61
2023/03/03 12:21:49;;;;;;;14.80;9.07;;;6.20;90.00;;;;;;5048933;28;20036;-60
2023/03/03 12:24:29;;;;;;;;;;;6.20;84.10;;;;;;5048688;28;20037;-61
2023/03/03 12:27:16;;;;;;;14.48;8.55;;;6.30;76.60;;;;;;5085526;28;20372;-60
2023/03/03 12:29:49;;;;;;;18.75;10.65;;;6.30;83.20;;;;;;5088861;28;20047;-60
2023/03/03 12:33:09;;;;;;;16.25;9.68;;;6.40;80.00;;;;;;5051254;28;20020;-61
2023/03/03 12:36:09;;;;;;;16.73;10.02;;;6.40;80.30;;;;;;5048404;28;20174;-60
2023/03/03 12:38:52;;;;;;;19.73;10.40;;;6.40;78.10;;;;;;5053122;28;20131;-60
2023/03/03 12:41:40;;;;;;;16.48;9.07;;;6.40;77.60;;;;;;5049004;28;20029;-61
2023/03/03 12:44:19;;;;;;;15.38;9.60;;;6.40;78.50;;;;;;5049552;28;20037;-61
2023/03/03 12:47:00;;;;;;;16.17;8.93;;;6.40;79.90;;;;;;5047789;28;20029;-62
2023/03/03 12:49:51;;;;;;;18.55;10.23;;;6.40;79.80;;;;;;5068919;28;20042;-60
2023/03/03 12:52:31;;;;;;;16.63;9.10;;;6.40;76.70;;;;;;5037775;28;20035;-60
2023/03/03 12:55:14;;;;;;;20.95;11.10;;;6.40;81.30;;;;;;5069020;28;20012;-61
2023/03/03 12:57:52;;;;;;;16.08;9.20;;;6.50;73.40;;;;;;5054949;28;20438;-60
2023/03/03 13:00:30;;;;;;;15.88;9.65;;;6.50;79.40;;;;;;5048879;28;20447;-60
2023/03/03 13:03:47;;;;;;;16.88;9.30;;;6.60;81.60;;;;;;5057135;28;20024;-59
2023/03/03 13:06:33;;;;;;;16.63;8.88;;;6.60;78.20;;;;;;5052445;28;20547;-61
2023/03/03 13:09:14;;;;;;;15.73;8.77;;;6.70;80.80;;;;;;5060217;28;20045;-60
2023/03/03 13:12:03;;;;;;;19.13;9.90;;;6.80;77.20;;;;;;5048588;28;20033;-60
2023/03/03 13:14:38;;;;;;;17.17;9.95;;;6.70;75.30;;;;;;5048464;28;20059;-60